Time;durP1;ratioP1;P1;durP2;ratioP2;P2;SDS_P1;SDS_P2;PMS_P1;PMS_P2;Temp;Humidity;BMP_temperature;BMP_pressure;BME280_temperature;BME280_humidity;BME280_pressure;Samples;Min_cycle;Max_cycle;Signal;HPM_P1;HPM_P2
2021/12/14 00:02:28;;;;;;;15.70;11.50;;;;;;;;;;5068062;28;20097;-29
2021/12/14 00:04:59;;;;;;;13.43;11.07;;;;;;;;;;5062149;28;20108;-30
2021/12/14 00:07:34;;;;;;;16.27;11.05;;;;;;;;;;5068713;28;20041;-29
2021/12/14 00:11:12;;;;;;;14.95;12.00;;;;;;;;;;5062921;28;20036;-30
2021/12/14 00:13:53;;;;;;;14.73;11.15;;;;;;;;;;5061950;28;20489;-30
2021/12/14 00:16:22;;;;;;;14.82;11.57;;;;;;;;;;5070337;28;20154;-30
2021/12/14 00:18:52;;;;;;;14.35;11.68;;;;;;;;;;5058757;28;20395;-30
2021/12/14 00:21:28;;;;;;;13.77;11.68;;;;;;;;;;5070389;28;20029;-27
2021/12/14 00:24:10;;;;;;;14.02;11.48;;;;;;;;;;5071104;28;20319;-27
2021/12/14 00:26:49;;;;;;;16.85;11.05;;;;;;;;;;5071240;28;20036;-27
2021/12/14 00:29:27;;;;;;;15.02;12.35;;;;;;;;;;5071355;28;20405;-28
2021/12/14 00:31:54;;;;;;;15.38;11.55;;;;;;;;;;5053582;28;20043;-25
2021/12/14 00:34:35;;;;;;;16.92;12.80;;;;;;;;;;5070785;28;20443;-25
2021/12/14 00:37:08;;;;;;;15.52;12.25;;;;;;;;;;5071253;28;20051;-25
2021/12/14 00:39:38;;;;;;;16.38;12.57;;;;;;;;;;5069390;28;20045;-26
2021/12/14 00:42:04;;;;;;;17.38;13.80;;;;;;;;;;5070838;28;20037;-26
2021/12/14 00:44:36;;;;;;;21.30;14.27;;;;;;;;;;5068959;28;20048;-26
2021/12/14 00:47:09;;;;;;;16.75;13.20;;;;;;;;;;5052657;28;20048;-25
2021/12/14 00:49:35;;;;;;;17.50;13.25;;;;;;;;;;5071057;28;20367;-25
2021/12/14 00:52:06;;;;;;;17.52;12.68;;;;;;;;;;5070295;28;20055;-25
2021/12/14 00:54:40;;;;;;;18.85;14.05;;;;;;;;;;5053140;28;20048;-25
2021/12/14 00:57:18;;;;;;;19.20;14.25;;;;;;;;;;5070817;28;20041;-25
2021/12/14 00:59:48;;;;;;;20.27;13.45;;;;;;;;;;5070663;28;20040;-26
2021/12/14 01:02:34;;;;;;;17.73;14.43;;;;;;;;;;5069538;28;20059;-26
2021/12/14 01:05:07;;;;;;;18.73;13.52;;;;;;;;;;5070887;28;20040;-26
2021/12/14 01:07:37;;;;;;;17.52;13.65;;;;;;;;;;5070558;28;20078;-27
2021/12/14 01:10:17;;;;;;;18.73;14.10;;;;;;;;;;5066731;28;20044;-27
2021/12/14 01:12:57;;;;;;;19.50;13.27;;;;;;;;;;5068752;28;20041;-27
2021/12/14 01:16:16;;;;;;;19.55;13.88;;;;;;;;;;5051109;28;20040;-27
2021/12/14 01:19:02;;;;;;;20.42;13.93;;;;;;;;;;5064432;28;20043;-26
2021/12/14 01:27:08;;;;;;;18.55;13.57;;;;;;;;;;5066413;28;20045;-26
2021/12/14 01:30:06;;;;;;;18.95;14.38;;;;;;;;;;5069425;28;20127;-26
2021/12/14 01:32:35;;;;;;;19.52;14.38;;;;;;;;;;5069341;28;20113;-28
2021/12/14 01:35:11;;;;;;;18.30;13.52;;;;;;;;;;5069475;28;20041;-26
2021/12/14 01:37:48;;;;;;;17.30;13.55;;;;;;;;;;5074116;28;20044;-26
2021/12/14 01:40:46;;;;;;;18.65;14.68;;;;;;;;;;5074645;28;20041;-25
2021/12/14 01:43:13;;;;;;;18.13;13.95;;;;;;;;;;5073457;28;20109;-26
2021/12/14 01:45:57;;;;;;;18.60;14.73;;;;;;;;;;5074116;28;20036;-26
2021/12/14 01:48:25;;;;;;;19.05;15.00;;;;;;;;;;5074490;28;20443;-25
2021/12/14 01:50:56;;;;;;;16.63;13.05;;;;;;;;;;5073139;28;20047;-26
2021/12/14 01:53:31;;;;;;;18.88;14.00;;;;;;;;;;5073572;28;20040;-26
2021/12/14 01:56:19;;;;;;;17.77;13.85;;;;;;;;;;5062807;28;20045;-26
2021/12/14 01:58:54;;;;;;;16.10;13.00;;;;;;;;;;5073597;28;20382;-25
2021/12/14 02:02:21;;;;;;;18.77;13.38;;;;;;;;;;5071994;28;20059;-25
2021/12/14 02:04:46;;;;;;;20.75;14.55;;;;;;;;;;5069817;28;20036;-26
2021/12/14 02:07:15;;;;;;;22.10;15.45;;;;;;;;;;5072891;28;20044;-26
2021/12/14 02:09:46;;;;;;;20.00;14.52;;;;;;;;;;5055041;28;20108;-26
2021/12/14 02:12:36;;;;;;;19.88;15.00;;;;;;;;;;5073165;28;20045;-26
2021/12/14 02:15:25;;;;;;;20.55;13.73;;;;;;;;;;5072705;28;20047;-26
2021/12/14 02:17:55;;;;;;;20.35;14.57;;;;;;;;;;5059599;28;20060;-25
2021/12/14 02:20:23;;;;;;;22.52;16.15;;;;;;;;;;5072739;28;20049;-26
2021/12/14 02:22:55;;;;;;;19.92;15.32;;;;;;;;;;5072934;28;20047;-26
2021/12/14 02:25:27;;;;;;;20.92;14.90;;;;;;;;;;5054579;28;20502;-26
2021/12/14 02:28:00;;;;;;;23.58;16.25;;;;;;;;;;5071784;28;20054;-26
2021/12/14 02:30:38;;;;;;;20.92;14.98;;;;;;;;;;5072545;28;20047;-26
2021/12/14 02:33:12;;;;;;;22.50;15.40;;;;;;;;;;5071836;28;20045;-26
2021/12/14 02:35:42;;;;;;;22.17;15.52;;;;;;;;;;5072360;28;20120;-26
2021/12/14 02:38:12;;;;;;;21.48;15.95;;;;;;;;;;5072542;28;20048;-26
2021/12/14 02:41:01;;;;;;;23.40;16.40;;;;;;;;;;5054462;28;20044;-26
2021/12/14 02:43:30;;;;;;;22.17;16.98;;;;;;;;;;5072413;28;20044;-26
2021/12/14 02:46:08;;;;;;;20.83;15.77;;;;;;;;;;5072038;28;20080;-26
2021/12/14 02:48:40;;;;;;;22.88;17.10;;;;;;;;;;5071243;28;20047;-26
2021/12/14 02:51:13;;;;;;;27.80;18.10;;;;;;;;;;5072126;28;20047;-27
2021/12/14 02:53:48;;;;;;;24.30;17.13;;;;;;;;;;5071338;28;20046;-25
2021/12/14 02:56:21;;;;;;;22.65;17.00;;;;;;;;;;5054643;28;20123;-25
2021/12/14 02:59:01;;;;;;;24.00;17.40;;;;;;;;;;5071250;28;20048;-25
2021/12/14 03:01:31;;;;;;;27.08;18.50;;;;;;;;;;5072118;28;20040;-25
2021/12/14 03:04:04;;;;;;;26.55;18.17;;;;;;;;;;5072127;28;20138;-31
2021/12/14 03:06:34;;;;;;;25.98;18.02;;;;;;;;;;5071970;28;20094;-25
2021/12/14 03:09:30;;;;;;;25.85;18.55;;;;;;;;;;5054623;28;20036;-26
2021/12/14 03:12:05;;;;;;;27.08;17.85;;;;;;;;;;5072249;28;20056;-26
2021/12/14 03:14:41;;;;;;;26.10;18.15;;;;;;;;;;5053801;28;20049;-26
2021/12/14 03:17:10;;;;;;;29.52;18.75;;;;;;;;;;5053363;28;20089;-26
2021/12/14 03:19:45;;;;;;;26.80;18.63;;;;;;;;;;5071869;28;20110;-26
2021/12/14 03:22:26;;;;;;;24.95;18.45;;;;;;;;;;5071825;28;20437;-26
2021/12/14 03:24:59;;;;;;;27.42;19.35;;;;;;;;;;5070027;28;20048;-26
2021/12/14 03:27:31;;;;;;;28.10;20.13;;;;;;;;;;5071578;28;20050;-26
2021/12/14 03:30:06;;;;;;;27.50;20.17;;;;;;;;;;5071574;28;20044;-26
2021/12/14 03:33:17;;;;;;;27.75;19.80;;;;;;;;;;5071298;28;20082;-26
2021/12/14 03:35:46;;;;;;;30.17;20.08;;;;;;;;;;5071350;28;20048;-26
2021/12/14 03:38:21;;;;;;;29.90;19.88;;;;;;;;;;5053399;28;20052;-26
2021/12/14 03:40:54;;;;;;;32.00;20.45;;;;;;;;;;5071265;28;20067;-26
2021/12/14 03:43:29;;;;;;;32.47;21.02;;;;;;;;;;5069354;28;20291;-29
2021/12/14 03:48:29;;;;;;;33.00;22.13;;;;;;;;;;5097051;22;20044;-26
2021/12/14 03:50:55;;;;;;;32.80;22.23;;;;;;;;;;5065509;28;20072;-27
2021/12/14 03:53:22;;;;;;;31.45;21.00;;;;;;;;;;5053209;28;20041;-27
2021/12/14 03:59:13;;;;;;;34.30;22.63;;;;;;;;;;5067185;28;20601;-27
2021/12/14 04:01:41;;;;;;;32.58;22.10;;;;;;;;;;5068110;28;20431;-27
2021/12/14 04:04:15;;;;;;;30.98;21.52;;;;;;;;;;5068082;28;20473;-27
2021/12/14 04:06:42;;;;;;;32.70;21.67;;;;;;;;;;5068244;28;20080;-27
2021/12/14 04:09:11;;;;;;;34.95;23.55;;;;;;;;;;5067753;28;20409;-27
2021/12/14 04:11:38;;;;;;;32.63;22.63;;;;;;;;;;5068081;28;20064;-27
2021/12/14 04:14:12;;;;;;;32.03;23.13;;;;;;;;;;5066758;28;20033;-27
2021/12/14 04:16:42;;;;;;;35.38;22.92;;;;;;;;;;5068306;28;20443;-27
2021/12/14 04:19:29;;;;;;;35.67;22.90;;;;;;;;;;5066926;28;20081;-27
2021/12/14 04:21:58;;;;;;;36.00;23.35;;;;;;;;;;5051134;28;20036;-27
2021/12/14 04:24:27;;;;;;;32.15;23.08;;;;;;;;;;5068031;28;20036;-27
2021/12/14 04:26:58;;;;;;;38.50;24.95;;;;;;;;;;5068873;28;20059;-28
2021/12/14 04:29:28;;;;;;;32.97;23.23;;;;;;;;;;5069795;28;20052;-28
2021/12/14 04:32:07;;;;;;;37.08;25.63;;;;;;;;;;5069579;28;20036;-27
2021/12/14 04:34:35;;;;;;;38.70;25.10;;;;;;;;;;5042658;23;20054;-27
2021/12/14 04:37:03;;;;;;;37.95;24.55;;;;;;;;;;5048929;28;20040;-27
2021/12/14 04:39:38;;;;;;;35.75;24.92;;;;;;;;;;5048545;28;20111;-26
2021/12/14 04:53:35;;;;;;;38.95;25.80;;;;;;;;;;5047308;28;20037;-26
2021/12/14 04:56:02;;;;;;;38.30;26.23;;;;;;;;;;5047428;28;20041;-26
2021/12/14 04:58:30;;;;;;;36.97;25.10;;;;;;;;;;5048290;28;20399;-26
2021/12/14 05:00:56;;;;;;;39.70;25.25;;;;;;;;;;5047480;28;20103;-26
2021/12/14 05:03:28;;;;;;;41.38;25.70;;;;;;;;;;5047095;28;20095;-26
2021/12/14 05:06:08;;;;;;;40.25;25.75;;;;;;;;;;5046887;28;20291;-26
2021/12/14 05:11:06;;;;;;;39.38;27.45;;;;;;;;;;5047865;28;20092;-27
2021/12/14 05:13:53;;;;;;;40.58;26.13;;;;;;;;;;5039762;28;20040;-26
2021/12/14 05:16:24;;;;;;;42.13;27.13;;;;;;;;;;5045741;28;20067;-26
2021/12/14 05:18:52;;;;;;;40.47;27.17;;;;;;;;;;5030512;28;20048;-26
2021/12/14 05:21:32;;;;;;;40.97;26.25;;;;;;;;;;5047587;28;20049;-27
2021/12/14 05:23:59;;;;;;;41.53;26.70;;;;;;;;;;5047235;28;20124;-26
2021/12/14 05:26:26;;;;;;;42.70;26.30;;;;;;;;;;5047617;28;20045;-27
2021/12/14 05:28:53;;;;;;;41.53;27.58;;;;;;;;;;5048173;28;20088;-27
2021/12/14 05:31:19;;;;;;;43.28;28.20;;;;;;;;;;5044318;28;20043;-27
2021/12/14 05:33:46;;;;;;;41.13;26.60;;;;;;;;;;5041787;28;20141;-27
2021/12/14 05:36:15;;;;;;;43.00;27.35;;;;;;;;;;5055009;28;20569;-27
2021/12/14 05:44:19;;;;;;;41.92;27.50;;;;;;;;;;5023863;28;20033;-27
2021/12/14 05:46:50;;;;;;;45.83;28.67;;;;;;;;;;5046081;28;20124;-27
2021/12/14 05:49:21;;;;;;;44.20;28.95;;;;;;;;;;5047849;28;20045;-27
2021/12/14 05:51:48;;;;;;;49.00;30.83;;;;;;;;;;5029705;28;20359;-27
2021/12/14 05:54:22;;;;;;;64.85;39.47;;;;;;;;;;5047668;28;20029;-28
2021/12/14 05:56:48;;;;;;;56.67;33.95;;;;;;;;;;5047217;28;20033;-27
2021/12/14 05:59:22;;;;;;;59.38;38.40;;;;;;;;;;5048013;28;20037;-27
2021/12/14 06:01:49;;;;;;;52.78;32.50;;;;;;;;;;5048033;28;20212;-28
2021/12/14 06:04:15;;;;;;;46.55;29.42;;;;;;;;;;5047331;28;20041;-27
2021/12/14 06:06:44;;;;;;;47.67;31.98;;;;;;;;;;5047176;28;20033;-27
2021/12/14 06:09:18;;;;;;;46.53;30.90;;;;;;;;;;5039749;28;20040;-27
2021/12/14 06:11:45;;;;;;;46.95;31.05;;;;;;;;;;5045951;28;20533;-27
2021/12/14 06:14:13;;;;;;;46.05;30.98;;;;;;;;;;5046622;28;20401;-27
2021/12/14 06:16:40;;;;;;;48.75;32.30;;;;;;;;;;5036830;28;20371;-27
2021/12/14 06:19:18;;;;;;;49.85;32.22;;;;;;;;;;5049751;28;20098;-27
2021/12/14 06:21:45;;;;;;;48.15;31.98;;;;;;;;;;5046893;28;20060;-27
2021/12/14 06:24:12;;;;;;;49.35;31.27;;;;;;;;;;5041903;28;20033;-26
2021/12/14 06:26:42;;;;;;;51.10;33.05;;;;;;;;;;5049923;28;20045;-27
2021/12/14 06:29:13;;;;;;;53.50;32.60;;;;;;;;;;5051211;28;20045;-27
2021/12/14 06:31:41;;;;;;;53.15;35.08;;;;;;;;;;5050167;28;20033;-27
2021/12/14 06:34:23;;;;;;;48.92;32.10;;;;;;;;;;5049223;28;20424;-27
2021/12/14 06:37:02;;;;;;;67.53;36.35;;;;;;;;;;5053710;28;20041;-27
2021/12/14 06:39:29;;;;;;;56.85;33.58;;;;;;;;;;5044913;28;20374;-27
2021/12/14 06:42:05;;;;;;;54.83;34.25;;;;;;;;;;5049723;28;20048;-27
2021/12/14 06:44:34;;;;;;;53.63;34.00;;;;;;;;;;5050391;28;20033;-27
2021/12/14 06:47:04;;;;;;;58.42;35.00;;;;;;;;;;5049524;28;20495;-27
2021/12/14 06:49:34;;;;;;;55.40;33.70;;;;;;;;;;5049011;28;20530;-28
2021/12/14 06:52:00;;;;;;;60.25;34.13;;;;;;;;;;5051269;28;20076;-27
2021/12/14 06:54:29;;;;;;;59.65;33.65;;;;;;;;;;5051284;28;20040;-27
2021/12/14 06:56:58;;;;;;;58.78;34.50;;;;;;;;;;5051109;28;20033;-27
2021/12/14 06:59:24;;;;;;;58.15;34.28;;;;;;;;;;5048242;28;20482;-27
2021/12/14 07:01:53;;;;;;;62.25;35.60;;;;;;;;;;5048854;28;20040;-25
2021/12/14 07:04:21;;;;;;;69.78;39.85;;;;;;;;;;5041161;28;20033;-26
2021/12/14 07:07:02;;;;;;;203.65;101.10;;;;;;;;;;5049333;28;20043;-26
2021/12/14 07:09:37;;;;;;;104.80;55.53;;;;;;;;;;5055964;28;20132;-26
2021/12/14 07:12:06;;;;;;;76.03;43.22;;;;;;;;;;5051432;28;20486;-26
2021/12/14 07:14:53;;;;;;;68.05;41.28;;;;;;;;;;5050201;28;20040;-28
2021/12/14 07:17:48;;;;;;;61.33;36.92;;;;;;;;;;5032043;28;20049;-29
2021/12/14 07:20:14;;;;;;;65.97;37.75;;;;;;;;;;5013490;28;20594;-29
2021/12/14 07:22:49;;;;;;;65.35;39.35;;;;;;;;;;5048020;28;20056;-27
2021/12/14 07:25:26;;;;;;;63.65;38.55;;;;;;;;;;5048756;28;20126;-27
2021/12/14 07:28:30;;;;;;;64.47;35.97;;;;;;;;;;5050561;28;20390;-27
2021/12/14 07:30:59;;;;;;;70.43;38.25;;;;;;;;;;4928398;29;20044;-27
2021/12/14 07:33:28;;;;;;;63.90;36.70;;;;;;;;;;4946252;28;20122;-26
2021/12/14 07:36:01;;;;;;;64.85;38.50;;;;;;;;;;4989815;28;20044;-26
2021/12/14 07:38:50;;;;;;;69.07;37.75;;;;;;;;;;5032657;28;20086;-26
2021/12/14 07:41:35;;;;;;;63.90;36.85;;;;;;;;;;5033063;28;20087;-27
2021/12/14 07:44:04;;;;;;;68.28;36.55;;;;;;;;;;5042818;28;20047;-27
2021/12/14 07:46:33;;;;;;;67.38;36.90;;;;;;;;;;5049816;28;20037;-27
2021/12/14 07:49:22;;;;;;;65.57;37.03;;;;;;;;;;5042977;28;20033;-27
2021/12/14 07:52:08;;;;;;;61.92;36.10;;;;;;;;;;5012843;28;20052;-27
2021/12/14 07:54:43;;;;;;;65.25;37.38;;;;;;;;;;5050178;28;20394;-28
2021/12/14 07:57:32;;;;;;;62.00;35.90;;;;;;;;;;5042717;28;20090;-27
2021/12/14 08:00:06;;;;;;;61.53;34.78;;;;;;;;;;5049773;28;20044;-27
2021/12/14 08:02:34;;;;;;;64.25;36.58;;;;;;;;;;5050545;28;20528;-27
2021/12/14 08:05:22;;;;;;;66.32;38.80;;;;;;;;;;5050222;28;20442;-28
2021/12/14 08:07:59;;;;;;;62.22;35.30;;;;;;;;;;5049300;28;20047;-27
2021/12/14 08:10:30;;;;;;;69.00;38.60;;;;;;;;;;5049909;28;20033;-27
2021/12/14 08:13:05;;;;;;;64.38;36.53;;;;;;;;;;5049652;28;20382;-28
2021/12/14 08:15:37;;;;;;;59.78;35.35;;;;;;;;;;5050103;28;20033;-27
2021/12/14 08:18:02;;;;;;;69.45;38.25;;;;;;;;;;5049538;28;20041;-27
2021/12/14 08:20:29;;;;;;;67.57;37.63;;;;;;;;;;5050416;28;20031;-28
2021/12/14 08:22:57;;;;;;;61.13;35.28;;;;;;;;;;5049855;28;20135;-28
2021/12/14 08:25:26;;;;;;;65.07;35.85;;;;;;;;;;5048806;28;20047;-27
2021/12/14 08:28:00;;;;;;;65.82;37.88;;;;;;;;;;5050010;28;20075;-27
2021/12/14 08:30:27;;;;;;;67.43;37.58;;;;;;;;;;5049427;28;20079;-27
2021/12/14 08:32:53;;;;;;;69.25;37.97;;;;;;;;;;5031744;28;20123;-28
2021/12/14 08:35:19;;;;;;;69.93;37.55;;;;;;;;;;5049426;28;20072;-27
2021/12/14 08:37:50;;;;;;;67.85;37.88;;;;;;;;;;5049414;28;20493;-27
2021/12/14 08:40:18;;;;;;;67.18;38.13;;;;;;;;;;5049812;28;20047;-27
2021/12/14 08:43:00;;;;;;;72.68;40.30;;;;;;;;;;5049195;28;20041;-27
2021/12/14 08:45:41;;;;;;;69.10;39.15;;;;;;;;;;5048719;28;20375;-27
2021/12/14 08:48:11;;;;;;;71.38;41.42;;;;;;;;;;5049110;28;20102;-27
2021/12/14 08:50:42;;;;;;;67.95;38.42;;;;;;;;;;5031217;28;20076;-27
2021/12/14 08:53:08;;;;;;;65.97;37.85;;;;;;;;;;5048897;28;20029;-27
2021/12/14 08:55:36;;;;;;;68.03;39.20;;;;;;;;;;5049051;28;20647;-27
2021/12/14 08:58:03;;;;;;;74.25;41.83;;;;;;;;;;5031081;28;20350;-28
2021/12/14 09:00:32;;;;;;;61.42;35.72;;;;;;;;;;5049707;28;20036;-28
2021/12/14 09:03:00;;;;;;;89.57;51.53;;;;;;;;;;5048407;28;20524;-29
2021/12/14 09:05:30;;;;;;;89.63;51.45;;;;;;;;;;5032125;28;20117;-29
2021/12/14 09:07:57;;;;;;;70.75;42.55;;;;;;;;;;5050445;28;20438;-26
2021/12/14 09:10:24;;;;;;;62.22;37.10;;;;;;;;;;5050120;28;20041;-30
2021/12/14 09:12:52;;;;;;;64.07;38.53;;;;;;;;;;5048766;28;20040;-30
2021/12/14 09:15:23;;;;;;;64.80;39.90;;;;;;;;;;5047372;28;20044;-29
2021/12/14 09:18:06;;;;;;;64.85;38.38;;;;;;;;;;5049053;28;20060;-30
2021/12/14 09:20:45;;;;;;;64.53;38.25;;;;;;;;;;5040475;28;20116;-30
2021/12/14 09:23:31;;;;;;;59.35;36.33;;;;;;;;;;5047756;28;20052;-30
2021/12/14 09:25:57;;;;;;;57.50;35.92;;;;;;;;;;5044551;28;20106;-29
2021/12/14 09:28:24;;;;;;;61.47;37.83;;;;;;;;;;5044855;28;20091;-30
2021/12/14 09:30:58;;;;;;;57.38;37.50;;;;;;;;;;5054835;28;20052;-29
2021/12/14 09:33:25;;;;;;;;;;;;;;;;;;5030681;28;20044;-30
2021/12/14 09:35:56;;;;;;;59.08;35.70;;;;;;;;;;5048525;28;19995;-29
2021/12/14 09:38:31;;;;;;;61.60;37.40;;;;;;;;;;5047744;28;20417;-30
2021/12/14 09:40:58;;;;;;;57.90;34.95;;;;;;;;;;5049284;28;20052;-30
2021/12/14 09:43:24;;;;;;;59.15;35.97;;;;;;;;;;5048300;28;20403;-30
2021/12/14 09:45:56;;;;;;;60.92;35.35;;;;;;;;;;5048664;28;20037;-29
2021/12/14 09:48:29;;;;;;;59.67;35.65;;;;;;;;;;5049150;28;20045;-28
2021/12/14 09:50:57;;;;;;;62.53;37.80;;;;;;;;;;5041750;28;20045;-27
2021/12/14 09:53:40;;;;;;;61.13;37.60;;;;;;;;;;5049522;28;20041;-26
2021/12/14 09:56:14;;;;;;;57.28;35.70;;;;;;;;;;5030496;28;20134;-27
2021/12/14 09:58:43;;;;;;;55.55;34.00;;;;;;;;;;5034245;28;20085;-27
2021/12/14 10:01:17;;;;;;;53.10;33.03;;;;;;;;;;5034305;28;20068;-27
2021/12/14 10:03:47;;;;;;;58.60;36.85;;;;;;;;;;5034400;28;20048;-27
2021/12/14 10:06:14;;;;;;;57.15;36.20;;;;;;;;;;5033892;28;20047;-27
2021/12/14 10:08:45;;;;;;;63.67;38.45;;;;;;;;;;5034059;28;20264;-27
2021/12/14 10:11:23;;;;;;;58.45;36.00;;;;;;;;;;5034636;28;20510;-26
2021/12/14 10:13:49;;;;;;;61.58;39.28;;;;;;;;;;5034239;28;20041;-26
2021/12/14 10:16:15;;;;;;;61.17;38.13;;;;;;;;;;5033903;28;20115;-27
2021/12/14 10:18:45;;;;;;;64.10;40.30;;;;;;;;;;5033679;28;20053;-27
2021/12/14 10:21:17;;;;;;;59.45;34.58;;;;;;;;;;5017684;28;20094;-30
2021/12/14 10:23:44;;;;;;;56.95;35.15;;;;;;;;;;5038902;28;20048;-30
2021/12/14 10:26:11;;;;;;;60.47;37.03;;;;;;;;;;5035833;28;20048;-30
2021/12/14 10:28:39;;;;;;;61.88;37.05;;;;;;;;;;5052517;28;20140;-30
2021/12/14 10:31:07;;;;;;;59.13;35.05;;;;;;;;;;5052066;28;20132;-30
2021/12/14 10:33:34;;;;;;;56.42;35.42;;;;;;;;;;5043195;28;20051;-30
2021/12/14 10:36:04;;;;;;;50.67;32.45;;;;;;;;;;5062477;28;20045;-30
2021/12/14 10:38:38;;;;;;;54.22;33.47;;;;;;;;;;5051559;28;20101;-30
2021/12/14 10:44:01;;;;;;;53.35;32.10;;;;;;;;;;5040460;28;20040;-29
2021/12/14 10:46:32;;;;;;;53.28;33.08;;;;;;;;;;5042060;28;20052;-30
2021/12/14 10:48:58;;;;;;;58.30;35.22;;;;;;;;;;5042806;28;20036;-30
2021/12/14 10:51:27;;;;;;;51.42;31.35;;;;;;;;;;5048674;28;20399;-30
2021/12/14 10:53:53;;;;;;;49.38;31.48;;;;;;;;;;5058681;28;20037;-30
2021/12/14 10:56:26;;;;;;;55.80;33.90;;;;;;;;;;5051554;28;20042;-30
2021/12/14 10:58:54;;;;;;;50.22;32.45;;;;;;;;;;5048958;28;20047;-30
2021/12/14 11:01:26;;;;;;;52.33;32.25;;;;;;;;;;5052002;28;20032;-30
2021/12/14 11:03:53;;;;;;;51.33;31.38;;;;;;;;;;5047030;28;20041;-30
2021/12/14 11:06:22;;;;;;;52.05;33.35;;;;;;;;;;5052022;28;20048;-30
2021/12/14 11:09:01;;;;;;;54.13;31.48;;;;;;;;;;5044297;28;20040;-30
2021/12/14 11:11:36;;;;;;;55.65;33.13;;;;;;;;;;5042686;28;20041;-30
2021/12/14 11:14:05;;;;;;;54.13;32.30;;;;;;;;;;5051027;28;20387;-29
2021/12/14 11:19:38;;;;;;;53.80;32.70;;;;;;;;;;5046483;28;20520;-27
2021/12/14 11:22:27;;;;;;;61.10;34.13;;;;;;;;;;5045156;28;20044;-29
2021/12/14 11:25:17;;;;;;;57.72;33.88;;;;;;;;;;5007030;28;20131;-29
2021/12/14 11:27:48;;;;;;;58.00;33.55;;;;;;;;;;5053211;28;20040;-25
2021/12/14 11:30:25;;;;;;;61.55;34.53;;;;;;;;;;5055131;28;20044;-25
2021/12/14 11:33:10;;;;;;;60.72;34.38;;;;;;;;;;5054857;28;20044;-25
2021/12/14 11:35:40;;;;;;;64.75;35.50;;;;;;;;;;5054211;28;20041;-26
2021/12/14 11:38:12;;;;;;;61.28;36.20;;;;;;;;;;5054513;28;20045;-26
2021/12/14 11:40:39;;;;;;;61.50;35.72;;;;;;;;;;5020163;28;20049;-27
2021/12/14 11:43:17;;;;;;;60.30;35.58;;;;;;;;;;5054515;28;20169;-27
2021/12/14 11:45:46;;;;;;;65.10;35.58;;;;;;;;;;5054189;28;20052;-27
2021/12/14 11:48:12;;;;;;;59.70;35.45;;;;;;;;;;5054551;28;20076;-27
2021/12/14 11:50:40;;;;;;;64.65;36.45;;;;;;;;;;5035919;28;20111;-27
2021/12/14 11:53:06;;;;;;;56.55;34.25;;;;;;;;;;5042605;28;20067;-27
2021/12/14 11:55:44;;;;;;;64.95;37.05;;;;;;;;;;5027333;28;20124;-27
2021/12/14 11:58:13;;;;;;;60.90;35.40;;;;;;;;;;5050825;28;20059;-27
2021/12/14 12:00:43;;;;;;;65.40;36.35;;;;;;;;;;5055653;28;20064;-27
2021/12/14 12:03:30;;;;;;;61.60;33.95;;;;;;;;;;5053008;28;20044;-27
2021/12/14 12:06:06;;;;;;;58.60;33.10;;;;;;;;;;5018416;28;20040;-28
2021/12/14 12:11:19;;;;;;;60.30;34.40;;;;;;;;;;5051933;28;20055;-27
2021/12/14 12:13:45;;;;;;;60.63;35.45;;;;;;;;;;5053096;28;20096;-28
2021/12/14 12:16:20;;;;;;;69.28;39.05;;;;;;;;;;5053302;28;20037;-27
2021/12/14 12:19:03;;;;;;;55.38;33.65;;;;;;;;;;5045289;28;20419;-34
2021/12/14 12:21:29;;;;;;;57.50;36.65;;;;;;;;;;5051309;28;20048;-34
2021/12/14 12:23:55;;;;;;;58.88;32.42;;;;;;;;;;5052733;28;20045;-27
2021/12/14 12:26:25;;;;;;;59.08;34.75;;;;;;;;;;5052874;28;20378;-27
2021/12/14 12:28:55;;;;;;;53.42;32.17;;;;;;;;;;5046021;28;20048;-28
2021/12/14 12:31:21;;;;;;;58.03;33.00;;;;;;;;;;5052627;28;20045;-28
2021/12/14 12:33:52;;;;;;;51.42;30.35;;;;;;;;;;5052456;28;20033;-28
2021/12/14 12:36:18;;;;;;;49.80;30.88;;;;;;;;;;5052696;28;20036;-28
2021/12/14 12:38:55;;;;;;;50.58;30.10;;;;;;;;;;5052986;28;20111;-28
2021/12/14 12:41:25;;;;;;;54.08;29.98;;;;;;;;;;5033782;28;20041;-27
2021/12/14 12:44:04;;;;;;;52.17;30.48;;;;;;;;;;5046383;28;20145;-28
2021/12/14 12:46:36;;;;;;;48.42;29.50;;;;;;;;;;5039133;28;20118;-27
2021/12/14 12:49:05;;;;;;;47.30;30.45;;;;;;;;;;5040660;28;20033;-27
2021/12/14 12:51:37;;;;;;;55.20;30.90;;;;;;;;;;5048432;28;20491;-26
2021/12/14 12:54:13;;;;;;;49.92;27.77;;;;;;;;;;5051263;28;20421;-27
2021/12/14 12:56:42;;;;;;;49.85;27.92;;;;;;;;;;5051717;28;20045;-27
2021/12/14 12:59:09;;;;;;;57.35;30.52;;;;;;;;;;5051787;28;20048;-27
2021/12/14 13:01:35;;;;;;;54.13;30.42;;;;;;;;;;5050139;28;20112;-27
2021/12/14 13:04:01;;;;;;;58.30;31.98;;;;;;;;;;5040417;28;20388;-27
2021/12/14 13:06:27;;;;;;;48.67;28.27;;;;;;;;;;5057674;28;20040;-27
2021/12/14 13:08:58;;;;;;;53.78;28.98;;;;;;;;;;5051622;28;20425;-27
2021/12/14 13:11:32;;;;;;;47.83;28.33;;;;;;;;;;5050712;28;20037;-25
2021/12/14 13:14:03;;;;;;;49.33;26.80;;;;;;;;;;5051754;28;20033;-29
2021/12/14 13:16:34;;;;;;;49.97;28.02;;;;;;;;;;5028661;28;20486;-27
2021/12/14 13:19:02;;;;;;;43.72;25.77;;;;;;;;;;5064346;28;20072;-28
2021/12/14 13:21:28;;;;;;;46.35;27.08;;;;;;;;;;5054681;28;20033;-28
2021/12/14 13:24:18;;;;;;;43.70;26.60;;;;;;;;;;5050593;28;20086;-27
2021/12/14 13:26:47;;;;;;;41.40;25.05;;;;;;;;;;5039364;28;20057;-27
2021/12/14 13:29:13;;;;;;;44.80;27.73;;;;;;;;;;5050798;28;20555;-27
2021/12/14 13:31:41;;;;;;;44.95;27.13;;;;;;;;;;5045475;28;20048;-27
2021/12/14 13:34:09;;;;;;;41.13;24.17;;;;;;;;;;5049997;28;20025;-27
2021/12/14 13:36:36;;;;;;;43.17;25.98;;;;;;;;;;5054745;28;20037;-27
2021/12/14 13:39:04;;;;;;;43.05;26.92;;;;;;;;;;5050505;28;20037;-30
2021/12/14 13:41:41;;;;;;;42.80;26.83;;;;;;;;;;5053241;28;20986;-27
2021/12/14 13:44:07;;;;;;;43.00;26.45;;;;;;;;;;5050274;28;20037;-27
2021/12/14 13:46:34;;;;;;;42.72;26.58;;;;;;;;;;5058800;28;20044;-27
2021/12/14 13:49:03;;;;;;;48.10;28.17;;;;;;;;;;5057472;28;20052;-27
2021/12/14 13:51:30;;;;;;;46.50;27.38;;;;;;;;;;5054931;28;20041;-27
2021/12/14 13:53:57;;;;;;;46.38;27.73;;;;;;;;;;5056967;28;20049;-27
2021/12/14 13:56:34;;;;;;;45.55;28.58;;;;;;;;;;5055891;28;20040;-27
2021/12/14 13:59:00;;;;;;;41.70;25.40;;;;;;;;;;5057857;28;20486;-27
2021/12/14 14:01:31;;;;;;;47.38;26.60;;;;;;;;;;5057605;28;20091;-27
2021/12/14 14:04:01;;;;;;;49.03;28.40;;;;;;;;;;5057289;28;20448;-28
2021/12/14 14:06:27;;;;;;;53.30;29.17;;;;;;;;;;5056128;28;20578;-27
2021/12/14 14:08:55;;;;;;;49.90;27.63;;;;;;;;;;5057030;28;20044;-27
2021/12/14 14:11:41;;;;;;;52.53;28.45;;;;;;;;;;5057600;28;20128;-28
2021/12/14 14:14:09;;;;;;;48.13;28.08;;;;;;;;;;5057650;28;20040;-27
2021/12/14 14:16:49;;;;;;;49.15;27.88;;;;;;;;;;5057056;28;20337;-27
2021/12/14 14:19:17;;;;;;;50.72;28.60;;;;;;;;;;5057290;28;20076;-27
2021/12/14 14:21:49;;;;;;;45.45;26.73;;;;;;;;;;5057333;28;20045;-27
2021/12/14 14:24:24;;;;;;;45.63;26.63;;;;;;;;;;5038246;28;20205;-27
2021/12/14 14:26:51;;;;;;;42.65;25.75;;;;;;;;;;5054403;28;20040;-27
2021/12/14 14:29:19;;;;;;;49.58;28.02;;;;;;;;;;5056031;28;20047;-27
2021/12/14 14:31:53;;;;;;;42.92;25.05;;;;;;;;;;5057174;28;20064;-27
2021/12/14 14:34:53;;;;;;;51.75;26.55;;;;;;;;;;5039227;28;20124;-33
2021/12/14 14:37:24;;;;;;;52.88;29.17;;;;;;;;;;5050328;28;20045;-27
2021/12/14 14:39:55;;;;;;;46.47;25.70;;;;;;;;;;5058894;28;20037;-27
2021/12/14 14:42:28;;;;;;;42.97;25.00;;;;;;;;;;5061426;28;20367;-27
2021/12/14 14:44:56;;;;;;;;;;;;;;;;;;5052387;28;20041;-27
2021/12/14 14:47:30;;;;;;;48.22;25.52;;;;;;;;;;5052548;28;20021;-27
2021/12/14 14:50:11;;;;;;;50.10;25.77;;;;;;;;;;5052892;28;20506;-27
2021/12/14 14:52:39;;;;;;;49.55;26.73;;;;;;;;;;5043823;28;20393;-27
2021/12/14 14:55:05;;;;;;;42.22;24.00;;;;;;;;;;5052938;28;20033;-27
2021/12/14 14:57:33;;;;;;;52.22;27.00;;;;;;;;;;5052378;28;20044;-27
2021/12/14 15:00:05;;;;;;;51.67;26.75;;;;;;;;;;5052812;28;20041;-27
2021/12/14 15:02:34;;;;;;;45.30;26.35;;;;;;;;;;5050527;28;20475;-27
2021/12/14 15:05:07;;;;;;;45.83;26.42;;;;;;;;;;5054168;28;20044;-27
2021/12/14 15:07:52;;;;;;;44.80;25.58;;;;;;;;;;5040448;23;20098;-29
2021/12/14 15:10:19;;;;;;;49.97;26.23;;;;;;;;;;5066996;28;20041;-29
2021/12/14 15:13:07;;;;;;;50.65;26.55;;;;;;;;;;5061832;28;20556;-29
2021/12/14 15:15:33;;;;;;;71.82;47.28;;;;;;;;;;5071976;28;20029;-29
2021/12/14 15:17:59;;;;;;;67.00;36.65;;;;;;;;;;5063632;28;20044;-29
2021/12/14 15:20:33;;;;;;;61.42;33.55;;;;;;;;;;5072070;28;20037;-29
2021/12/14 15:23:00;;;;;;;55.95;30.92;;;;;;;;;;5062587;28;20087;-30
2021/12/14 15:25:30;;;;;;;60.45;32.55;;;;;;;;;;5071457;28;20458;-29
2021/12/14 15:27:58;;;;;;;59.00;30.77;;;;;;;;;;5064006;28;20059;-29
2021/12/14 15:30:42;;;;;;;51.42;30.20;;;;;;;;;;5067415;28;20048;-29
2021/12/14 15:33:19;;;;;;;54.35;29.45;;;;;;;;;;5053644;28;20045;-31